createdAt,value
2023-02-28T00:00:24.581Z,64.34
2023-02-28T00:01:27.589Z,64.33
2023-02-28T00:02:47.962Z,64.10
2023-02-28T00:03:50.705Z,64.27
2023-02-28T00:04:53.906Z,64.69
2023-02-28T00:05:56.443Z,64.90
2023-02-28T00:06:57.994Z,64.42
2023-02-28T00:08:00.612Z,64.64
2023-02-28T00:09:03.266Z,64.48
2023-02-28T00:10:07.322Z,64.43
2023-02-28T00:11:11.641Z,64.55
2023-02-28T00:12:13.431Z,64.57
2023-02-28T00:13:15.940Z,64.86
2023-02-28T00:14:17.500Z,64.64
2023-02-28T00:15:20.803Z,64.73
2023-02-28T00:16:24.068Z,64.66
2023-02-28T00:17:26.775Z,64.98
2023-02-28T00:18:30.492Z,64.70
2023-02-28T00:19:33.990Z,64.58
2023-02-28T00:20:35.528Z,64.85
2023-02-28T00:21:38.071Z,64.85
2023-02-28T00:22:41.294Z,65.16
2023-02-28T00:23:44.710Z,65.04
2023-02-28T00:24:46.664Z,64.94
2023-02-28T00:25:50.231Z,65.19
2023-02-28T00:26:51.759Z,65.04
2023-02-28T00:27:54.469Z,64.95
2023-02-28T00:28:56.014Z,64.97
2023-02-28T00:29:58.515Z,65.30
2023-02-28T00:31:01.056Z,65.59
2023-02-28T00:32:06.329Z,65.06
2023-02-28T00:33:07.898Z,65.52
2023-02-28T00:34:10.701Z,65.35
2023-02-28T00:35:13.070Z,65.06
2023-02-28T00:36:15.753Z,65.20
2023-02-28T00:37:17.463Z,65.18
2023-02-28T00:38:20.038Z,65.15
2023-02-28T00:39:22.256Z,65.02
2023-02-28T00:40:24.862Z,65.11
2023-02-28T00:41:26.588Z,65.25
2023-02-28T00:42:29.219Z,65.31
2023-02-28T00:43:31.430Z,65.52
2023-02-28T00:44:34.552Z,65.19
2023-02-28T00:45:36.142Z,65.44
2023-02-28T00:46:38.676Z,65.62
2023-02-28T00:47:41.561Z,65.67
2023-02-28T00:48:44.428Z,65.81
2023-02-28T00:49:45.985Z,65.33
2023-02-28T00:50:50.455Z,65.35
2023-02-28T00:51:52.996Z,65.56
2023-02-28T00:52:55.492Z,65.64
2023-02-28T00:53:57.087Z,65.53
2023-02-28T00:54:59.760Z,65.46
2023-02-28T00:56:01.587Z,65.61
2023-02-28T00:57:04.249Z,65.65
2023-02-28T00:58:05.844Z,65.42
2023-02-28T00:59:08.513Z,65.48
2023-02-28T01:00:11.883Z,65.60
2023-02-28T01:01:18.753Z,65.74
2023-02-28T01:02:20.764Z,65.43
2023-02-28T01:03:24.766Z,65.75
2023-02-28T01:04:26.338Z,65.81
2023-02-28T01:05:29.292Z,65.41
2023-02-28T01:06:30.968Z,65.56
2023-02-28T01:07:33.510Z,65.53
2023-02-28T01:08:35.052Z,65.53
2023-02-28T01:09:37.565Z,65.84
2023-02-28T01:10:39.342Z,65.35
2023-02-28T01:11:44.764Z,65.97
2023-02-28T01:12:46.323Z,65.76
2023-02-28T01:13:49.251Z,65.71
2023-02-28T01:14:50.840Z,65.42
2023-02-28T01:15:55.351Z,65.98
2023-02-28T01:16:56.879Z,66.00
2023-02-28T01:17:59.502Z,65.69
2023-02-28T01:19:02.407Z,65.91
2023-02-28T01:20:05.930Z,66.13
2023-02-28T01:21:08.827Z,66.06
2023-02-28T01:22:11.322Z,65.98
2023-02-28T01:23:13.344Z,65.82
2023-02-28T01:24:16.028Z,65.98
2023-02-28T01:25:17.726Z,65.98
2023-02-28T01:26:23.019Z,66.17
2023-02-28T01:27:24.554Z,66.21
2023-02-28T01:28:27.234Z,66.66
2023-02-28T01:29:28.862Z,66.20
2023-02-28T01:30:32.140Z,65.97
2023-02-28T01:31:33.789Z,66.69
2023-02-28T01:32:37.460Z,66.45
2023-02-28T01:33:39.711Z,66.81
2023-02-28T01:34:43.891Z,66.51
2023-02-28T01:35:45.454Z,66.39
2023-02-28T01:36:47.934Z,66.58
2023-02-28T01:37:49.444Z,66.95
2023-02-28T01:38:52.338Z,66.69
2023-02-28T01:39:53.844Z,66.36
2023-02-28T01:40:57.072Z,66.55
2023-02-28T01:41:58.605Z,66.68
2023-02-28T01:43:01.137Z,66.86
2023-02-28T01:44:06.138Z,66.46
2023-02-28T01:45:23.867Z,66.65
2023-02-28T01:46:25.721Z,66.52
2023-02-28T01:47:31.890Z,66.53
2023-02-28T01:48:37.581Z,66.60
2023-02-28T01:49:40.815Z,66.94
2023-02-28T01:50:47.121Z,66.83
2023-02-28T01:51:51.783Z,66.70
2023-02-28T01:52:59.067Z,67.46
2023-02-28T01:54:03.917Z,66.82
2023-02-28T01:55:08.786Z,67.45
2023-02-28T01:56:15.901Z,67.09
2023-02-28T01:57:21.637Z,67.67
2023-02-28T01:58:23.935Z,67.36
2023-02-28T01:59:31.114Z,67.27
2023-02-28T02:00:33.849Z,67.35
2023-02-28T02:01:36.915Z,67.17
2023-02-28T02:02:38.700Z,67.59
2023-02-28T02:03:41.230Z,67.78
2023-02-28T02:04:50.908Z,67.21
2023-02-28T02:05:54.775Z,67.37
2023-02-28T02:06:56.435Z,67.83
2023-02-28T02:08:03.320Z,67.70
2023-02-28T02:09:05.466Z,67.76
2023-02-28T02:10:15.705Z,67.38
2023-02-28T02:11:19.967Z,67.93
2023-02-28T02:12:34.641Z,67.94
2023-02-28T02:13:56.084Z,67.54
2023-02-28T02:15:06.314Z,67.84
2023-02-28T02:16:21.666Z,67.72
2023-02-28T02:17:33.168Z,67.99
2023-02-28T02:18:42.899Z,67.73
2023-02-28T02:20:17.699Z,68.13
2023-02-28T02:21:55.253Z,68.18
2023-02-28T02:23:18.829Z,68.38
2023-02-28T02:24:48.366Z,67.86
2023-02-28T02:25:56.042Z,68.52
2023-02-28T02:27:17.380Z,68.50
2023-02-28T02:29:00.124Z,68.44
2023-02-28T02:30:45.670Z,68.05
2023-02-28T02:32:15.756Z,68.00
2023-02-28T02:33:32.688Z,68.18
2023-02-28T02:34:57.085Z,68.50
2023-02-28T02:36:06.652Z,68.15
2023-02-28T02:37:15.989Z,68.87
2023-02-28T02:38:27.051Z,68.70
2023-02-28T02:39:34.737Z,69.00
2023-02-28T02:40:44.470Z,68.54
2023-02-28T02:41:51.308Z,68.76
2023-02-28T02:42:58.017Z,68.59
2023-02-28T02:44:07.443Z,69.15
2023-02-28T02:45:14.622Z,69.28
2023-02-28T02:46:21.050Z,68.77
2023-02-28T02:47:28.188Z,69.35
2023-02-28T02:48:35.910Z,69.17
2023-02-28T02:49:40.984Z,69.34
2023-02-28T02:50:50.685Z,68.70
2023-02-28T02:51:55.157Z,69.35
2023-02-28T02:53:02.069Z,68.85
2023-02-28T02:54:08.963Z,68.81
2023-02-28T02:55:13.976Z,69.46
2023-02-28T02:56:17.912Z,69.03
2023-02-28T02:57:25.810Z,69.19
2023-02-28T02:58:31.712Z,69.48
2023-02-28T02:59:35.751Z,69.24
2023-02-28T03:00:42.119Z,68.98
2023-02-28T03:01:44.858Z,69.41
2023-02-28T03:02:49.802Z,69.05
2023-02-28T03:03:52.771Z,69.12
2023-02-28T03:05:01.429Z,69.67
2023-02-28T03:06:07.007Z,69.17
2023-02-28T03:07:08.573Z,69.25
2023-02-28T03:08:11.254Z,69.39
2023-02-28T03:09:13.419Z,69.23
2023-02-28T03:10:37.827Z,69.97
2023-02-28T03:11:44.383Z,70.05
2023-02-28T03:12:58.594Z,69.96
2023-02-28T03:14:15.021Z,69.85
2023-02-28T03:15:23.558Z,69.74
2023-02-28T03:16:37.430Z,69.79
2023-02-28T03:18:02.531Z,69.79
2023-02-28T03:19:28.957Z,70.08
2023-02-28T03:20:42.056Z,70.14
2023-02-28T03:21:55.350Z,70.37
2023-02-28T03:23:04.944Z,70.04
2023-02-28T03:24:12.262Z,70.13
2023-02-28T03:25:20.940Z,70.59
2023-02-28T03:26:25.922Z,70.10
2023-02-28T03:27:29.973Z,70.49
2023-02-28T03:28:38.762Z,70.73
2023-02-28T03:29:45.138Z,70.03
2023-02-28T03:30:54.594Z,70.19
2023-02-28T03:32:00.617Z,70.66
2023-02-28T03:33:08.390Z,70.73
2023-02-28T03:34:13.379Z,70.75
2023-02-28T03:35:22.727Z,70.29
2023-02-28T03:36:29.983Z,70.53
2023-02-28T03:37:37.262Z,70.79
2023-02-28T03:38:43.975Z,70.37
2023-02-28T03:39:49.991Z,70.42
2023-02-28T03:40:57.662Z,70.50
2023-02-28T03:42:03.284Z,70.48
2023-02-28T03:43:15.484Z,71.21
2023-02-28T03:44:20.624Z,70.57
2023-02-28T03:45:26.737Z,71.07
2023-02-28T03:46:32.728Z,70.81
2023-02-28T03:47:41.320Z,71.30
2023-02-28T03:48:46.773Z,70.62
2023-02-28T03:49:53.491Z,70.86
2023-02-28T03:55:44.570Z,71.01
2023-02-28T03:56:53.839Z,70.76
2023-02-28T03:58:03.935Z,71.06
2023-02-28T03:59:11.794Z,70.78
2023-02-28T04:00:19.576Z,70.72
2023-02-28T04:01:27.294Z,71.08
2023-02-28T04:02:30.054Z,70.96
2023-02-28T04:03:31.643Z,71.27
2023-02-28T04:04:34.608Z,70.82
2023-02-28T04:05:48.250Z,70.75
2023-02-28T04:06:52.567Z,70.67
2023-02-28T04:07:55.061Z,70.61
2023-02-28T04:08:57.585Z,70.68
2023-02-28T04:09:59.606Z,71.11
2023-02-28T04:11:08.686Z,71.04
2023-02-28T04:12:10.375Z,70.71
2023-02-28T04:13:12.901Z,71.24
2023-02-28T04:14:14.720Z,71.57
2023-02-28T04:15:17.317Z,70.93
2023-02-28T04:16:33.596Z,71.04
2023-02-28T04:17:37.385Z,71.35
2023-02-28T04:18:39.000Z,71.01
2023-02-28T04:19:41.503Z,70.51
2023-02-28T04:20:43.043Z,71.48
2023-02-28T04:21:47.641Z,70.69
2023-02-28T04:22:49.163Z,71.63
2023-02-28T04:23:51.698Z,71.29
2023-02-28T04:24:54.546Z,71.40
2023-02-28T04:25:57.147Z,70.84
2023-02-28T04:27:00.039Z,71.21
2023-02-28T04:28:02.541Z,71.38
2023-02-28T04:29:06.079Z,71.10
2023-02-28T04:30:09.639Z,71.55
2023-02-28T04:31:11.577Z,71.23
2023-02-28T04:32:14.557Z,70.98
2023-02-28T04:33:16.172Z,71.27
2023-02-28T04:34:19.899Z,71.56
2023-02-28T04:35:21.478Z,70.91
2023-02-28T04:36:26.384Z,70.97
2023-02-28T04:37:29.763Z,71.42
2023-02-28T04:38:34.754Z,71.05
2023-02-28T04:39:37.832Z,71.46
2023-02-28T04:40:40.431Z,70.76
2023-02-28T04:41:42.111Z,71.25
2023-02-28T04:42:45.969Z,70.75
2023-02-28T04:43:47.583Z,71.34
2023-02-28T04:44:50.071Z,71.23
2023-02-28T04:45:51.605Z,70.89
2023-02-28T04:46:54.130Z,71.59
2023-02-28T04:47:55.733Z,71.67
2023-02-28T04:48:59.017Z,70.84
2023-02-28T04:50:00.827Z,71.24
2023-02-28T04:51:04.077Z,70.98
2023-02-28T04:52:05.786Z,70.93
2023-02-28T04:53:08.292Z,71.53
2023-02-28T04:54:10.344Z,71.13
2023-02-28T04:55:12.816Z,71.56
2023-02-28T04:56:16.027Z,70.94
2023-02-28T04:57:18.539Z,70.80
2023-02-28T04:58:23.907Z,71.14
2023-02-28T04:59:26.425Z,71.12
2023-02-28T05:00:28.041Z,71.17
2023-02-28T05:01:33.192Z,71.21
2023-02-28T05:02:35.534Z,70.88
2023-02-28T05:03:38.080Z,70.78
2023-02-28T05:04:40.633Z,70.94
2023-02-28T05:05:42.234Z,71.32
2023-02-28T05:06:45.149Z,70.52
2023-02-28T05:07:46.698Z,70.64
2023-02-28T05:08:49.465Z,70.88
2023-02-28T05:09:51.003Z,70.51
2023-02-28T05:10:53.499Z,71.34
2023-02-28T05:11:55.799Z,71.04
2023-02-28T05:12:58.360Z,70.72
2023-02-28T05:14:01.605Z,70.54
2023-02-28T05:15:05.821Z,71.29
2023-02-28T05:16:08.112Z,71.09
2023-02-28T05:17:11.426Z,70.68
2023-02-28T05:18:13.112Z,71.06
2023-02-28T05:19:16.074Z,70.59
2023-02-28T05:20:18.226Z,70.67
2023-02-28T05:21:27.854Z,70.72
2023-02-28T05:22:30.639Z,70.81
2023-02-28T05:23:32.561Z,70.87
2023-02-28T05:24:35.016Z,70.84
2023-02-28T05:25:36.603Z,70.37
2023-02-28T05:26:41.022Z,70.78
2023-02-28T05:27:42.789Z,70.60
2023-02-28T05:28:45.286Z,70.64
2023-02-28T05:29:49.141Z,70.74
2023-02-28T05:30:50.664Z,71.28
2023-02-28T05:31:53.450Z,70.58
2023-02-28T05:32:55.712Z,70.79
2023-02-28T05:33:58.172Z,70.61
2023-02-28T05:34:59.716Z,70.57
2023-02-28T05:36:02.403Z,70.41
2023-02-28T05:37:04.344Z,71.17
2023-02-28T05:38:07.277Z,70.72
2023-02-28T05:39:13.257Z,70.53
2023-02-28T05:40:16.353Z,71.13
2023-02-28T05:41:20.299Z,70.46
2023-02-28T05:42:23.618Z,70.71
2023-02-28T05:43:26.163Z,70.86
2023-02-28T05:44:29.138Z,70.71
2023-02-28T05:45:32.097Z,71.23
2023-02-28T05:46:34.627Z,70.73
2023-02-28T05:47:36.874Z,71.22
2023-02-28T05:48:41.420Z,70.90
2023-02-28T05:49:44.292Z,70.43
2023-02-28T05:50:46.969Z,71.03
2023-02-28T05:51:49.736Z,70.70
2023-02-28T05:52:51.565Z,70.60
2023-02-28T05:53:54.061Z,70.96
2023-02-28T05:54:55.594Z,71.11
2023-02-28T05:55:58.342Z,71.27
2023-02-28T05:56:59.921Z,71.24
2023-02-28T05:58:02.642Z,70.75
2023-02-28T05:59:09.666Z,70.86
2023-02-28T06:00:15.864Z,71.04
2023-02-28T06:01:24.993Z,70.87
2023-02-28T06:02:27.925Z,70.96
2023-02-28T06:03:29.492Z,70.75
2023-02-28T06:04:36.980Z,70.84
2023-02-28T06:05:39.402Z,70.42
2023-02-28T06:06:42.108Z,70.74
2023-02-28T06:07:45.435Z,70.64
2023-02-28T06:08:47.970Z,71.28
2023-02-28T06:09:49.490Z,70.37
2023-02-28T06:10:51.986Z,70.64
2023-02-28T06:11:55.002Z,70.93
2023-02-28T06:12:56.575Z,70.55
2023-02-28T06:14:01.641Z,70.73
2023-02-28T06:15:03.574Z,70.88
2023-02-28T06:16:06.693Z,71.17
2023-02-28T06:17:10.578Z,70.96
2023-02-28T06:18:13.132Z,70.46
2023-02-28T06:19:15.960Z,70.84
2023-02-28T06:20:18.849Z,71.11
2023-02-28T06:21:20.651Z,70.47
2023-02-28T06:22:23.437Z,70.97
2023-02-28T06:23:25.061Z,71.03
2023-02-28T06:24:28.835Z,70.87
2023-02-28T06:25:30.427Z,70.56
2023-02-28T06:26:33.350Z,70.54
2023-02-28T06:27:35.015Z,70.90
2023-02-28T06:28:41.968Z,70.82
2023-02-28T06:29:44.676Z,70.75
2023-02-28T06:30:46.666Z,71.11
2023-02-28T06:31:49.547Z,70.73
2023-02-28T06:32:52.981Z,70.54
2023-02-28T06:33:55.618Z,71.13
2023-02-28T06:34:59.043Z,70.33
2023-02-28T06:36:02.340Z,70.72
2023-02-28T06:37:04.009Z,70.78
2023-02-28T06:38:06.518Z,70.28
2023-02-28T06:39:09.110Z,70.08
2023-02-28T06:40:13.931Z,70.74
2023-02-28T06:41:15.503Z,70.09
2023-02-28T06:42:18.219Z,70.05
2023-02-28T06:43:19.740Z,70.76
2023-02-28T06:44:23.388Z,70.56
2023-02-28T06:45:27.002Z,70.74
2023-02-28T06:46:29.521Z,70.64
2023-02-28T06:47:32.126Z,70.28
2023-02-28T06:48:36.214Z,70.30
2023-02-28T06:49:39.974Z,70.65
2023-02-28T06:50:42.550Z,69.94
2023-02-28T06:51:45.984Z,70.42
2023-02-28T06:52:48.557Z,69.96
2023-02-28T06:53:50.122Z,70.33
2023-02-28T06:55:00.623Z,70.04
2023-02-28T06:56:07.162Z,70.18
2023-02-28T06:57:09.885Z,70.19
2023-02-28T06:58:19.476Z,69.56
2023-02-28T06:59:22.607Z,70.08
2023-02-28T07:00:26.222Z,69.59
2023-02-28T07:01:29.068Z,69.83
2023-02-28T07:02:32.538Z,69.46
2023-02-28T07:03:35.972Z,69.78
2023-02-28T07:04:40.447Z,69.55
2023-02-28T07:05:42.185Z,70.10
2023-02-28T07:06:44.678Z,69.48
2023-02-28T07:07:47.830Z,69.88
2023-02-28T07:08:50.774Z,69.70
2023-02-28T07:09:52.320Z,69.56
2023-02-28T07:10:55.249Z,69.16
2023-02-28T07:11:57.348Z,69.66
2023-02-28T07:12:59.827Z,69.00
2023-02-28T07:14:02.337Z,69.31
2023-02-28T07:15:05.549Z,68.69
2023-02-28T07:16:11.568Z,68.53
2023-02-28T07:17:13.387Z,68.48
2023-02-28T07:18:15.891Z,68.02
2023-02-28T07:19:19.746Z,68.37
2023-02-28T07:20:21.347Z,67.92
2023-02-28T07:21:24.135Z,67.39
2023-02-28T07:22:26.812Z,67.77
2023-02-28T07:23:28.325Z,67.59
2023-02-28T07:24:30.942Z,67.63
2023-02-28T07:25:32.860Z,67.13
2023-02-28T07:26:35.990Z,67.26
2023-02-28T07:27:37.558Z,66.88
2023-02-28T07:28:40.110Z,66.65
2023-02-28T07:29:42.585Z,66.53
2023-02-28T07:30:44.231Z,66.71
2023-02-28T07:31:47.470Z,66.89
2023-02-28T07:32:49.098Z,65.97
2023-02-28T07:33:51.681Z,65.79
2023-02-28T07:34:54.804Z,65.69
2023-02-28T07:36:02.830Z,66.09
2023-02-28T07:37:06.353Z,66.11
2023-02-28T07:38:08.474Z,65.45
2023-02-28T07:39:11.292Z,65.74
2023-02-28T07:40:14.085Z,65.34
2023-02-28T07:41:17.336Z,65.26
2023-02-28T07:42:19.028Z,65.42
2023-02-28T07:43:21.515Z,64.72
2023-02-28T07:44:23.185Z,64.95
2023-02-28T07:45:25.781Z,65.03
2023-02-28T07:46:30.470Z,64.63
2023-02-28T07:47:33.750Z,64.51
2023-02-28T07:48:36.678Z,64.11
2023-02-28T07:49:39.269Z,64.03
2023-02-28T07:50:42.212Z,63.66
2023-02-28T07:51:44.715Z,63.39
2023-02-28T07:52:46.306Z,63.57
2023-02-28T07:53:48.798Z,63.58
2023-02-28T07:54:50.503Z,63.43
2023-02-28T07:55:56.401Z,63.03
2023-02-28T07:56:59.278Z,62.46
2023-02-28T07:58:01.038Z,62.49
2023-02-28T07:59:03.692Z,62.31
2023-02-28T08:00:07.601Z,62.47
2023-02-28T08:01:12.412Z,62.04
2023-02-28T08:02:15.572Z,62.32
2023-02-28T08:03:19.018Z,61.94
2023-02-28T08:04:21.610Z,61.56
2023-02-28T08:05:23.300Z,61.79
2023-02-28T08:06:27.380Z,61.10
2023-02-28T08:07:29.134Z,60.68
2023-02-28T08:08:32.171Z,60.27
2023-02-28T08:09:35.069Z,60.12
2023-02-28T08:10:38.469Z,60.13
2023-02-28T08:11:40.012Z,59.84
2023-02-28T08:12:42.495Z,59.33
2023-02-28T08:13:44.866Z,59.03
2023-02-28T08:14:47.819Z,58.82
2023-02-28T08:15:49.342Z,58.66
2023-02-28T08:16:51.851Z,58.30
2023-02-28T08:17:53.482Z,58.29
2023-02-28T08:18:56.001Z,58.47
2023-02-28T08:19:57.531Z,58.10
2023-02-28T08:21:00.161Z,58.08
2023-02-28T08:22:04.076Z,57.73
2023-02-28T08:23:06.549Z,57.45
2023-02-28T08:24:08.512Z,56.98
2023-02-28T08:25:11.313Z,56.97
2023-02-28T08:26:12.847Z,56.55
2023-02-28T08:27:15.437Z,56.85
2023-02-28T08:28:17.013Z,56.33
2023-02-28T08:29:19.611Z,56.49
2023-02-28T08:30:21.361Z,56.45
2023-02-28T08:31:23.972Z,55.70
2023-02-28T08:32:30.096Z,56.08
2023-02-28T08:33:32.365Z,55.59
2023-02-28T08:34:34.918Z,55.69
2023-02-28T08:35:37.352Z,55.57
2023-02-28T08:36:41.128Z,55.17
2023-02-28T08:37:45.080Z,55.14
2023-02-28T08:38:46.885Z,55.06
2023-02-28T08:39:49.407Z,54.88
2023-02-28T08:40:52.395Z,54.65
2023-02-28T08:42:06.745Z,54.69
2023-02-28T08:43:09.904Z,54.45
2023-02-28T08:44:12.372Z,54.50
2023-02-28T08:45:16.162Z,54.21
2023-02-28T08:46:18.690Z,53.87
2023-02-28T08:47:20.539Z,53.68
2023-02-28T08:48:23.074Z,53.58
2023-02-28T08:49:25.629Z,53.44
2023-02-28T08:50:27.199Z,53.14
2023-02-28T08:51:31.075Z,53.42
2023-02-28T08:52:32.772Z,53.25
2023-02-28T08:53:37.046Z,52.99
2023-02-28T08:54:39.565Z,52.93
2023-02-28T08:55:42.050Z,52.85
2023-02-28T08:56:43.854Z,52.72
2023-02-28T08:57:46.367Z,52.51
2023-02-28T08:58:49.281Z,52.51
2023-02-28T08:59:52.373Z,51.94
2023-02-28T09:01:10.482Z,52.08
2023-02-28T09:02:14.966Z,51.78
2023-02-28T09:03:16.531Z,51.51
2023-02-28T09:04:20.609Z,51.54
2023-02-28T09:05:23.929Z,51.67
2023-02-28T09:06:29.573Z,51.13
2023-02-28T09:07:31.363Z,50.84
2023-02-28T09:08:35.660Z,50.90
2023-02-28T09:09:38.445Z,50.59
2023-02-28T09:10:39.994Z,50.82
2023-02-28T09:11:42.607Z,50.65
2023-02-28T09:12:46.872Z,50.48
2023-02-28T09:13:49.388Z,50.16
2023-02-28T09:14:51.513Z,50.40
2023-02-28T09:15:54.108Z,50.25
2023-02-28T09:16:56.698Z,49.74
2023-02-28T09:17:58.367Z,49.91
2023-02-28T09:19:00.955Z,49.57
2023-02-28T09:20:03.523Z,49.71
2023-02-28T09:21:06.233Z,49.46
2023-02-28T09:22:08.741Z,49.43
2023-02-28T09:23:11.702Z,49.59
2023-02-28T09:24:16.122Z,49.73
2023-02-28T09:25:19.201Z,49.42
2023-02-28T09:26:24.134Z,49.38
2023-02-28T09:27:26.760Z,49.26
2023-02-28T09:28:28.351Z,48.93
2023-02-28T09:29:30.888Z,48.94
2023-02-28T09:30:33.479Z,48.84
2023-02-28T09:31:35.024Z,49.09
2023-02-28T09:32:37.495Z,48.89
2023-02-28T09:33:39.003Z,48.58
2023-02-28T09:34:41.799Z,48.61
2023-02-28T09:35:45.069Z,48.74
2023-02-28T09:36:48.654Z,48.13
2023-02-28T09:37:52.687Z,48.21
2023-02-28T09:38:55.172Z,48.12
2023-02-28T09:39:58.383Z,48.19
2023-02-28T09:41:03.396Z,47.98
2023-02-28T09:42:08.591Z,47.83
2023-02-28T09:43:15.769Z,47.88
2023-02-28T09:44:24.374Z,47.75
2023-02-28T09:45:33.456Z,47.66
2023-02-28T09:46:41.529Z,47.60
2023-02-28T09:47:46.190Z,47.43
2023-02-28T09:48:51.209Z,47.40
2023-02-28T09:49:53.982Z,47.29
2023-02-28T09:51:04.227Z,47.19
2023-02-28T09:52:11.074Z,46.91
2023-02-28T09:53:23.375Z,46.95
2023-02-28T09:54:29.680Z,46.91
2023-02-28T09:55:46.562Z,46.70
2023-02-28T09:56:54.333Z,46.58
2023-02-28T09:57:57.563Z,46.65
2023-02-28T09:59:07.566Z,46.68
2023-02-28T10:00:19.193Z,46.46
2023-02-28T10:01:30.265Z,46.46
2023-02-28T10:03:00.168Z,46.35
2023-02-28T10:04:07.890Z,46.24
2023-02-28T10:05:13.361Z,46.15
2023-02-28T10:06:20.417Z,46.34
2023-02-28T10:07:44.983Z,46.34
2023-02-28T10:08:55.570Z,46.24
2023-02-28T10:10:01.251Z,46.02
2023-02-28T10:11:10.041Z,45.96
2023-02-28T10:12:13.603Z,46.02
2023-02-28T10:13:24.458Z,45.94
2023-02-28T10:14:30.463Z,45.98
2023-02-28T10:15:35.044Z,45.68
2023-02-28T10:16:41.173Z,45.90
2023-02-28T10:17:55.261Z,45.70
2023-02-28T10:19:07.504Z,45.76
2023-02-28T10:20:14.374Z,45.86
2023-02-28T10:21:22.953Z,45.54
2023-02-28T10:22:28.761Z,45.56
2023-02-28T10:23:36.753Z,45.60
2023-02-28T10:24:41.536Z,45.44
2023-02-28T10:25:48.911Z,45.23
2023-02-28T10:26:58.029Z,45.12
2023-02-28T10:28:32.824Z,44.72
2023-02-28T10:29:34.727Z,44.86
2023-02-28T10:30:40.498Z,44.87
2023-02-28T10:31:43.183Z,44.54
2023-02-28T10:32:51.674Z,44.63
2023-02-28T10:33:54.426Z,44.75
2023-02-28T10:35:00.967Z,44.71
2023-02-28T10:36:07.507Z,44.49
2023-02-28T10:37:10.913Z,44.29
2023-02-28T10:38:20.754Z,44.37
2023-02-28T10:39:38.540Z,44.42
2023-02-28T10:40:40.093Z,44.31
2023-02-28T10:41:45.428Z,44.25
2023-02-28T10:42:56.806Z,44.43
2023-02-28T10:44:19.886Z,44.30
2023-02-28T10:45:21.636Z,44.40
2023-02-28T10:46:27.732Z,44.32
2023-02-28T10:47:29.678Z,44.25
2023-02-28T10:48:36.034Z,44.45
2023-02-28T10:49:41.356Z,44.24
2023-02-28T10:50:46.717Z,44.30
2023-02-28T10:51:53.525Z,44.25
2023-02-28T10:52:55.689Z,44.24
2023-02-28T10:54:02.632Z,44.18
2023-02-28T10:55:23.577Z,44.26
2023-02-28T10:56:26.783Z,44.13
2023-02-28T10:57:32.505Z,43.89
2023-02-28T10:58:50.362Z,43.89
2023-02-28T10:59:55.839Z,43.96
2023-02-28T11:00:58.148Z,44.10
2023-02-28T11:02:00.784Z,43.95
2023-02-28T11:03:03.438Z,43.83
2023-02-28T11:04:20.251Z,43.87
2023-02-28T11:05:30.851Z,43.71
2023-02-28T11:06:35.560Z,43.90
2023-02-28T11:07:50.590Z,43.84
2023-02-28T11:08:57.722Z,43.71
2023-02-28T11:09:59.583Z,43.70
2023-02-28T11:11:07.845Z,43.67
2023-02-28T11:12:22.666Z,43.90
2023-02-28T11:13:29.539Z,43.84
2023-02-28T11:14:37.620Z,43.86
2023-02-28T11:15:40.312Z,43.63
2023-02-28T11:16:42.897Z,43.86
2023-02-28T11:17:44.542Z,43.66
2023-02-28T11:18:51.419Z,43.61
2023-02-28T11:19:56.185Z,43.57
2023-02-28T11:21:01.495Z,43.41
2023-02-28T11:22:05.846Z,43.46
2023-02-28T11:23:16.230Z,43.25
2023-02-28T11:24:26.581Z,43.39
2023-02-28T11:25:31.072Z,43.32
2023-02-28T11:26:42.714Z,43.34
2023-02-28T11:27:48.347Z,43.35
2023-02-28T11:29:10.402Z,43.46
2023-02-28T11:30:34.791Z,43.36
2023-02-28T11:31:37.370Z,43.38
2023-02-28T11:32:49.629Z,43.63
2023-02-28T11:33:53.970Z,43.33
2023-02-28T11:35:03.519Z,43.27
2023-02-28T11:36:13.964Z,43.22
2023-02-28T11:37:18.602Z,43.04
2023-02-28T11:38:21.423Z,43.35
2023-02-28T11:39:25.369Z,42.96
2023-02-28T11:40:38.843Z,42.99
2023-02-28T11:41:57.490Z,43.28
2023-02-28T11:43:18.249Z,43.04
2023-02-28T11:44:27.814Z,43.20
2023-02-28T11:45:46.117Z,43.19
2023-02-28T11:46:52.190Z,43.17
2023-02-28T11:48:03.732Z,43.21
2023-02-28T11:49:22.402Z,43.26
2023-02-28T11:50:41.060Z,42.96
2023-02-28T11:51:53.834Z,43.05
2023-02-28T11:53:04.747Z,42.91
2023-02-28T11:54:30.301Z,42.92
2023-02-28T11:55:37.547Z,42.89
2023-02-28T11:56:45.100Z,42.89
2023-02-28T11:58:05.154Z,42.70
2023-02-28T11:59:36.081Z,42.71
2023-02-28T12:00:51.352Z,42.60
2023-02-28T12:02:24.200Z,42.85
2023-02-28T12:03:33.484Z,42.62
2023-02-28T12:04:43.832Z,42.69
2023-02-28T12:05:47.787Z,42.77
2023-02-28T12:06:58.914Z,42.93
2023-02-28T12:08:13.383Z,43.01
2023-02-28T12:09:34.561Z,42.68
2023-02-28T12:10:56.247Z,42.86
2023-02-28T12:12:06.592Z,42.58
2023-02-28T12:13:20.016Z,42.81
2023-02-28T12:15:14.515Z,42.62
2023-02-28T12:16:37.649Z,42.68
2023-02-28T12:17:53.101Z,42.74
2023-02-28T12:19:09.977Z,42.79
2023-02-28T12:20:23.327Z,42.92
2023-02-28T12:21:34.856Z,42.81
2023-02-28T12:22:44.542Z,42.89
2023-02-28T12:24:03.807Z,42.87
2023-02-28T12:25:26.077Z,43.10
2023-02-28T12:26:37.567Z,42.96
2023-02-28T12:27:42.988Z,42.88
2023-02-28T12:28:50.804Z,43.14
2023-02-28T12:29:57.763Z,43.07
2023-02-28T12:31:05.689Z,43.21
2023-02-28T12:32:16.082Z,43.08
2023-02-28T12:33:24.425Z,43.16
2023-02-28T12:34:30.754Z,43.46
2023-02-28T12:35:38.797Z,43.24
2023-02-28T12:36:42.556Z,43.36
2023-02-28T12:37:49.289Z,43.39
2023-02-28T12:38:56.665Z,43.24
2023-02-28T12:40:06.753Z,43.25
2023-02-28T12:41:14.597Z,43.42
2023-02-28T12:42:25.626Z,43.18
2023-02-28T12:43:35.104Z,42.76
2023-02-28T12:44:46.476Z,43.30
2023-02-28T12:45:52.300Z,43.10
2023-02-28T12:47:01.903Z,43.12
2023-02-28T12:48:08.934Z,43.33
2023-02-28T12:49:17.445Z,43.23
2023-02-28T12:50:20.682Z,43.38
2023-02-28T12:51:24.017Z,43.16
2023-02-28T12:52:32.426Z,43.28
2023-02-28T12:53:50.629Z,43.08
2023-02-28T12:54:58.440Z,43.18
2023-02-28T12:56:13.938Z,43.11
2023-02-28T12:57:24.783Z,43.11
2023-02-28T12:58:31.641Z,43.29
2023-02-28T12:59:40.244Z,43.21
2023-02-28T13:01:06.481Z,43.07
2023-02-28T13:02:31.223Z,42.88
2023-02-28T13:04:01.588Z,43.02
2023-02-28T13:05:22.028Z,43.07
2023-02-28T13:06:45.891Z,42.85
2023-02-28T13:08:05.179Z,43.09
2023-02-28T13:09:13.264Z,43.19
2023-02-28T13:10:17.492Z,43.07
2023-02-28T13:11:30.143Z,42.89
2023-02-28T13:12:32.732Z,42.91
2023-02-28T13:13:39.099Z,43.19
2023-02-28T13:14:42.347Z,43.06
2023-02-28T13:15:59.782Z,42.91
2023-02-28T13:17:12.166Z,42.76
2023-02-28T13:18:30.760Z,42.67
2023-02-28T13:19:36.841Z,42.78
2023-02-28T13:20:52.127Z,42.79
2023-02-28T13:21:54.171Z,42.82
2023-02-28T13:22:58.077Z,42.91
2023-02-28T13:24:02.650Z,42.68
2023-02-28T13:25:52.167Z,42.80
2023-02-28T13:27:33.555Z,42.63
2023-02-28T13:29:00.627Z,42.67
2023-02-28T13:30:23.684Z,42.80
2023-02-28T13:31:29.036Z,42.77
2023-02-28T13:32:39.582Z,42.66
2023-02-28T13:34:08.161Z,42.43
2023-02-28T13:35:46.996Z,42.43
2023-02-28T13:36:49.748Z,42.43
2023-02-28T13:37:52.623Z,42.79
2023-02-28T13:39:00.816Z,42.47
2023-02-28T13:40:28.942Z,42.53
2023-02-28T13:41:49.390Z,42.36
2023-02-28T13:42:51.320Z,42.52
2023-02-28T13:44:06.280Z,42.84
2023-02-28T13:45:27.651Z,42.84
2023-02-28T13:46:33.327Z,42.21
2023-02-28T13:47:38.580Z,42.31
2023-02-28T13:48:41.629Z,42.41
2023-02-28T13:49:43.301Z,42.24
2023-02-28T13:50:47.185Z,42.11
2023-02-28T13:51:50.839Z,42.37
2023-02-28T13:53:13.409Z,42.24
2023-02-28T13:54:26.366Z,42.33
2023-02-28T13:55:33.957Z,42.38
2023-02-28T13:56:47.205Z,42.22
2023-02-28T13:58:13.559Z,42.33
2023-02-28T13:59:27.938Z,42.19
2023-02-28T14:00:43.670Z,42.54
2023-02-28T14:01:59.644Z,42.13
2023-02-28T14:03:16.845Z,42.21
2023-02-28T14:04:50.069Z,42.27
2023-02-28T14:06:19.126Z,42.44
2023-02-28T14:07:25.240Z,42.15
2023-02-28T14:08:27.916Z,42.38
2023-02-28T14:09:34.908Z,42.26
2023-02-28T14:10:43.649Z,42.24
2023-02-28T14:11:47.129Z,42.67
2023-02-28T14:13:14.732Z,42.63
2023-02-28T14:14:50.728Z,42.22
2023-02-28T14:15:58.957Z,42.44
2023-02-28T14:17:03.769Z,42.49
2023-02-28T14:18:16.459Z,42.15
2023-02-28T14:19:25.813Z,42.37
2023-02-28T14:20:31.399Z,42.24
2023-02-28T14:21:37.421Z,42.23